createdAt,value
2018-12-19T00:01:57.426Z,20.50
2018-12-19T00:04:31.091Z,20.40
2018-12-19T00:07:05.180Z,20.40
2018-12-19T00:09:38.635Z,20.30
2018-12-19T00:12:11.507Z,20.30
2018-12-19T00:14:44.898Z,20.30
2018-12-19T00:17:19.178Z,20.10
2018-12-19T00:26:52.900Z,20.00
2018-12-19T00:29:25.881Z,19.80
2018-12-19T00:31:58.789Z,19.60
2018-12-19T00:34:31.930Z,19.60
2018-12-19T00:37:04.886Z,19.60
2018-12-19T00:39:37.727Z,19.50
2018-12-19T00:42:10.769Z,19.50
2018-12-19T00:44:44.032Z,19.40
2018-12-19T00:47:19.081Z,19.40
2018-12-19T00:49:52.066Z,19.40
2018-12-19T00:52:25.048Z,19.50
2018-12-19T00:54:57.918Z,19.40
2018-12-19T00:57:33.872Z,19.40
2018-12-19T01:00:07.205Z,19.40
2018-12-19T01:02:42.131Z,19.40
2018-12-19T01:05:15.381Z,19.40
2018-12-19T01:07:48.387Z,19.40
2018-12-19T01:10:21.169Z,19.30
2018-12-19T01:12:54.078Z,19.30
2018-12-19T01:15:27.318Z,19.30
2018-12-19T01:18:01.518Z,19.30
2018-12-19T01:20:34.959Z,19.30
2018-12-19T01:23:09.070Z,19.20
2018-12-19T01:25:43.043Z,19.20
2018-12-19T01:28:17.587Z,19.20
2018-12-19T01:30:50.402Z,19.20
2018-12-19T01:33:23.657Z,19.10
2018-12-19T01:35:56.358Z,19.10
2018-12-19T01:38:29.218Z,19.00
2018-12-19T01:41:07.546Z,19.00
2018-12-19T01:43:40.401Z,18.90
2018-12-19T01:46:13.427Z,18.90
2018-12-19T01:48:46.443Z,18.90
2018-12-19T01:51:19.195Z,18.90
2018-12-19T01:53:52.256Z,18.90
2018-12-19T01:56:25.525Z,18.90
2018-12-19T01:59:03.220Z,18.90
2018-12-19T02:01:39.681Z,18.90
2018-12-19T02:04:12.771Z,18.90
2018-12-19T02:06:47.891Z,18.90
2018-12-19T02:09:20.705Z,19.00
2018-12-19T02:11:53.579Z,18.90
2018-12-19T02:14:26.801Z,18.90
2018-12-19T02:16:59.961Z,19.00
2018-12-19T02:19:35.482Z,18.90
2018-12-19T02:22:08.185Z,18.90
2018-12-19T02:24:41.302Z,18.90
2018-12-19T02:27:14.145Z,18.90
2018-12-19T02:29:47.122Z,18.90
2018-12-19T02:32:20.139Z,18.80
2018-12-19T02:34:53.126Z,18.80
2018-12-19T02:37:26.051Z,18.70
2018-12-19T02:39:59.317Z,18.60
2018-12-19T02:42:34.193Z,18.60
2018-12-19T02:45:07.271Z,18.60
2018-12-19T02:47:39.949Z,18.50
2018-12-19T02:50:13.278Z,18.50
2018-12-19T02:52:46.274Z,18.40
2018-12-19T02:55:20.326Z,18.30
2018-12-19T02:57:53.262Z,18.30
2018-12-19T03:00:26.393Z,18.20
2018-12-19T03:02:59.126Z,18.20
2018-12-19T03:05:32.600Z,18.20
2018-12-19T03:08:05.541Z,18.10
2018-12-19T03:10:38.938Z,18.00
2018-12-19T03:13:11.951Z,18.00
2018-12-19T03:15:45.470Z,17.90
2018-12-19T03:18:18.778Z,17.80
2018-12-19T03:20:51.641Z,17.80
2018-12-19T03:23:24.511Z,17.70
2018-12-19T03:25:57.411Z,17.70
2018-12-19T03:28:30.156Z,17.60
2018-12-19T03:31:03.176Z,17.60
2018-12-19T03:33:36.071Z,17.60
2018-12-19T03:36:09.773Z,17.50
2018-12-19T03:38:42.795Z,17.50
2018-12-19T03:41:15.681Z,17.40
2018-12-19T03:43:49.832Z,17.30
2018-12-19T03:46:22.819Z,17.20
2018-12-19T03:48:58.970Z,17.20
2018-12-19T03:51:35.213Z,17.10
2018-12-19T03:54:08.321Z,17.00
2018-12-19T03:56:41.450Z,16.90
2018-12-19T03:59:14.386Z,16.90
2018-12-19T04:01:47.282Z,16.80
2018-12-19T04:04:19.932Z,16.70
2018-12-19T04:06:52.868Z,16.70
2018-12-19T04:09:25.611Z,16.70
2018-12-19T04:11:58.626Z,16.60
2018-12-19T04:14:31.560Z,16.60
2018-12-19T04:17:04.515Z,16.50
2018-12-19T04:19:37.215Z,16.50
2018-12-19T04:22:10.206Z,16.40
2018-12-19T04:24:43.151Z,16.40
2018-12-19T04:27:16.329Z,16.40
2018-12-19T04:29:49.487Z,16.40
2018-12-19T04:32:24.010Z,16.40
2018-12-19T04:34:56.962Z,16.30
2018-12-19T04:37:29.774Z,16.30
2018-12-19T04:40:05.657Z,16.30
2018-12-19T04:42:37.617Z,16.20
2018-12-19T04:45:10.462Z,16.20
2018-12-19T04:47:43.360Z,16.10
2018-12-19T04:50:16.835Z,16.10
2018-12-19T04:52:49.658Z,16.10
2018-12-19T04:55:23.566Z,16.10
2018-12-19T04:57:56.501Z,16.00
2018-12-19T05:00:29.339Z,16.00
2018-12-19T05:03:02.308Z,16.00
2018-12-19T05:05:35.269Z,15.90
2018-12-19T05:08:07.907Z,15.90
2018-12-19T05:10:40.544Z,15.90
2018-12-19T05:13:14.513Z,15.80
2018-12-19T05:15:47.248Z,15.80
2018-12-19T05:18:20.098Z,15.80
2018-12-19T05:20:52.813Z,15.80
2018-12-19T05:23:25.874Z,15.80
2018-12-19T05:26:01.955Z,15.80
2018-12-19T05:28:34.719Z,15.80
2018-12-19T05:31:07.363Z,15.70
2018-12-19T05:33:40.272Z,15.70
2018-12-19T05:36:13.157Z,15.70
2018-12-19T05:38:46.165Z,15.70
2018-12-19T05:41:19.834Z,15.60
2018-12-19T05:43:53.206Z,15.60
2018-12-19T05:46:26.123Z,15.60
2018-12-19T05:48:58.945Z,15.50
2018-12-19T05:51:31.802Z,15.50
2018-12-19T05:54:04.786Z,15.50
2018-12-19T06:03:41.120Z,15.50
2018-12-19T06:06:13.893Z,15.40
2018-12-19T06:08:48.998Z,15.40
2018-12-19T06:11:21.828Z,15.30
2018-12-19T06:13:54.545Z,15.30
2018-12-19T06:16:27.572Z,15.40
2018-12-19T06:19:00.311Z,15.40
2018-12-19T06:21:33.160Z,15.40
2018-12-19T06:24:05.949Z,15.40
2018-12-19T06:26:38.968Z,15.40
2018-12-19T06:29:12.005Z,15.40
2018-12-19T06:31:44.935Z,15.50
2018-12-19T06:34:17.843Z,15.50
2018-12-19T06:36:50.813Z,15.50
2018-12-19T06:39:23.703Z,15.50
2018-12-19T06:41:56.620Z,15.60
2018-12-19T06:44:29.701Z,15.60
2018-12-19T06:47:02.901Z,15.60
2018-12-19T06:49:36.364Z,15.50
2018-12-19T06:52:09.151Z,15.40
2018-12-19T06:54:41.946Z,15.40
2018-12-19T06:57:14.758Z,15.40
2018-12-19T06:59:47.566Z,15.30
2018-12-19T07:02:20.426Z,15.30
2018-12-19T07:04:53.146Z,15.30
2018-12-19T07:07:25.802Z,15.30
2018-12-19T07:09:58.553Z,15.20
2018-12-19T07:12:31.627Z,15.20
2018-12-19T07:15:04.538Z,15.40
2018-12-19T07:17:37.499Z,15.40
2018-12-19T07:20:10.379Z,15.50
2018-12-19T07:22:43.343Z,15.40
2018-12-19T07:25:16.610Z,15.40
2018-12-19T07:27:49.287Z,15.40
2018-12-19T07:30:21.961Z,15.40
2018-12-19T07:32:55.039Z,15.40
2018-12-19T07:35:27.780Z,15.40
2018-12-19T07:38:00.729Z,15.40
2018-12-19T07:40:33.478Z,15.50
2018-12-19T07:43:06.430Z,15.50
2018-12-19T07:45:39.619Z,15.60
2018-12-19T07:48:12.646Z,15.70
2018-12-19T07:50:45.563Z,15.80
2018-12-19T07:53:18.442Z,15.80
2018-12-19T07:55:51.589Z,15.90
2018-12-19T07:58:24.478Z,15.90
2018-12-19T08:00:57.827Z,16.00
2018-12-19T08:03:31.763Z,16.00
2018-12-19T08:06:04.607Z,16.00
2018-12-19T08:08:37.620Z,15.90
2018-12-19T08:11:10.386Z,15.90
2018-12-19T08:13:43.177Z,15.80
2018-12-19T08:16:16.066Z,15.80
2018-12-19T08:18:49.051Z,15.70
2018-12-19T08:21:21.679Z,15.70
2018-12-19T08:23:54.546Z,15.70
2018-12-19T08:26:27.400Z,15.70
2018-12-19T08:29:00.366Z,15.60
2018-12-19T08:31:33.102Z,15.70
2018-12-19T08:34:06.033Z,15.60
2018-12-19T08:36:38.808Z,15.60
2018-12-19T08:39:11.644Z,15.50
2018-12-19T08:41:45.754Z,15.50
2018-12-19T08:44:18.676Z,15.50
2018-12-19T08:46:51.937Z,15.50
2018-12-19T08:49:24.850Z,15.50
2018-12-19T08:51:57.548Z,15.60
2018-12-19T08:54:30.590Z,15.70
2018-12-19T08:57:03.506Z,15.70
2018-12-19T08:59:36.341Z,15.80
2018-12-19T09:02:09.214Z,15.80
2018-12-19T09:04:42.519Z,15.80
2018-12-19T09:07:15.242Z,15.70
2018-12-19T09:09:48.205Z,15.70
2018-12-19T09:12:21.141Z,15.60
2018-12-19T09:14:54.014Z,15.50
2018-12-19T09:17:27.173Z,15.50
2018-12-19T09:20:00.555Z,15.40
2018-12-19T09:22:33.842Z,15.20
2018-12-19T09:25:06.722Z,15.20
2018-12-19T09:27:39.468Z,15.20
2018-12-19T09:30:12.436Z,15.10
2018-12-19T09:32:45.395Z,15.10
2018-12-19T09:35:18.411Z,15.10
2018-12-19T09:37:51.218Z,15.20
2018-12-19T09:40:24.318Z,15.30
2018-12-19T09:42:56.993Z,15.30
2018-12-19T09:45:29.918Z,15.30
2018-12-19T09:48:02.873Z,15.40
2018-12-19T09:50:35.810Z,15.50
2018-12-19T09:53:08.534Z,15.50
2018-12-19T09:55:41.858Z,15.50
2018-12-19T09:58:14.642Z,15.40
2018-12-19T10:00:47.469Z,15.40
2018-12-19T10:03:21.581Z,15.30
2018-12-19T10:05:54.618Z,15.30
2018-12-19T10:08:27.486Z,15.30
2018-12-19T10:11:00.445Z,15.30
2018-12-19T10:13:33.384Z,15.40
2018-12-19T10:16:06.415Z,15.30
2018-12-19T10:18:39.155Z,15.20
2018-12-19T10:21:11.979Z,15.20
2018-12-19T10:23:44.797Z,15.10
2018-12-19T10:26:17.652Z,15.10
2018-12-19T10:28:50.377Z,15.20
2018-12-19T10:31:23.442Z,15.20
2018-12-19T10:33:56.777Z,15.10
2018-12-19T10:36:34.813Z,15.10
2018-12-19T10:39:12.061Z,15.10
2018-12-19T10:41:44.766Z,15.10
2018-12-19T10:44:17.681Z,15.10
2018-12-19T10:46:50.426Z,15.10
2018-12-19T10:49:23.819Z,15.10
2018-12-19T10:51:56.670Z,15.20
2018-12-19T10:54:30.001Z,15.30
2018-12-19T10:57:03.050Z,15.30
2018-12-19T10:59:37.150Z,15.40
2018-12-19T11:02:10.020Z,15.50
2018-12-19T11:04:42.810Z,15.60
2018-12-19T11:07:16.717Z,15.70
2018-12-19T11:09:49.655Z,15.90
2018-12-19T11:12:22.597Z,15.90
2018-12-19T11:14:55.338Z,16.00
2018-12-19T11:17:28.631Z,16.00
2018-12-19T11:20:01.457Z,16.00
2018-12-19T11:22:34.336Z,16.10
2018-12-19T11:25:07.195Z,16.10
2018-12-19T11:27:40.040Z,16.10
2018-12-19T11:30:13.103Z,16.10
2018-12-19T11:32:46.174Z,16.10
2018-12-19T11:35:21.324Z,16.10
2018-12-19T11:37:54.126Z,16.00
2018-12-19T11:40:27.640Z,15.90
2018-12-19T11:43:00.600Z,15.90
2018-12-19T11:48:43.430Z,15.70
2018-12-19T11:51:15.993Z,15.70
2018-12-19T11:53:49.025Z,15.70
2018-12-19T11:56:27.348Z,15.70
2018-12-19T11:59:00.078Z,15.70
2018-12-19T12:01:32.991Z,15.80
2018-12-19T12:04:05.945Z,15.70
2018-12-19T12:06:54.583Z,15.70
2018-12-19T12:09:27.219Z,15.70
2018-12-19T12:11:59.890Z,15.60
2018-12-19T12:14:33.058Z,15.50
2018-12-19T12:17:07.130Z,15.60
2018-12-19T12:19:40.314Z,15.60
2018-12-19T12:22:12.892Z,15.60
2018-12-19T12:24:45.662Z,15.60
2018-12-19T12:27:23.741Z,15.70
2018-12-19T12:29:56.838Z,15.70
2018-12-19T12:32:29.393Z,15.60
2018-12-19T12:35:02.071Z,15.60
2018-12-19T12:37:34.690Z,15.50
2018-12-19T12:40:07.921Z,15.40
2018-12-19T12:42:48.995Z,15.40
2018-12-19T12:45:21.810Z,15.40
2018-12-19T12:47:54.395Z,15.40
2018-12-19T12:50:27.038Z,15.40
2018-12-19T12:53:00.420Z,15.50
2018-12-19T12:55:33.689Z,15.50
2018-12-19T12:58:07.254Z,15.60
2018-12-19T13:00:40.920Z,15.70
2018-12-19T13:03:14.371Z,15.70
2018-12-19T13:05:53.676Z,15.70
2018-12-19T13:08:26.696Z,15.70
2018-12-19T13:11:04.247Z,15.70
2018-12-19T13:13:37.306Z,15.70
2018-12-19T13:16:10.139Z,15.70
2018-12-19T13:18:42.988Z,15.80
2018-12-19T13:21:16.418Z,15.90
2018-12-19T13:23:49.273Z,15.90
2018-12-19T13:26:22.899Z,16.00
2018-12-19T13:28:56.871Z,16.00
2018-12-19T13:31:29.915Z,16.00
2018-12-19T13:34:02.703Z,16.00
2018-12-19T13:36:35.838Z,16.10
2018-12-19T13:39:11.839Z,16.10
2018-12-19T13:41:46.944Z,16.20
2018-12-19T13:44:19.487Z,16.30
2018-12-19T13:46:54.894Z,16.40
2018-12-19T13:49:27.991Z,16.50
2018-12-19T13:52:01.111Z,16.50
2018-12-19T13:54:37.154Z,16.60
2018-12-19T13:57:11.271Z,16.70
2018-12-19T13:59:45.598Z,16.80
2018-12-19T14:02:18.614Z,16.80
2018-12-19T14:04:51.624Z,16.90
2018-12-19T14:07:25.040Z,17.00
2018-12-19T14:09:58.074Z,17.10
2018-12-19T14:12:31.190Z,17.20
2018-12-19T14:15:05.083Z,17.20
2018-12-19T14:17:38.028Z,17.30
2018-12-19T14:20:11.713Z,17.40
2018-12-19T14:22:48.736Z,17.50
2018-12-19T14:25:27.597Z,17.50
2018-12-19T14:28:00.337Z,17.60
2018-12-19T14:30:33.198Z,17.70
2018-12-19T14:33:08.054Z,17.80
2018-12-19T14:35:40.973Z,17.90
2018-12-19T14:38:16.001Z,17.90
2018-12-19T14:40:48.426Z,18.00
2018-12-19T14:43:21.330Z,18.00
2018-12-19T14:45:54.812Z,18.10
2018-12-19T14:48:27.685Z,18.10
2018-12-19T14:51:00.691Z,18.30
2018-12-19T14:53:33.812Z,18.40
2018-12-19T14:56:09.790Z,18.40
2018-12-19T14:58:42.672Z,18.50
2018-12-19T15:01:15.594Z,18.60
2018-12-19T15:03:48.687Z,18.60
2018-12-19T15:06:23.466Z,18.70
2018-12-19T15:08:56.841Z,18.70
2018-12-19T15:24:42.016Z,18.80
2018-12-19T15:27:15.799Z,18.80
2018-12-19T15:29:48.778Z,19.00
2018-12-19T15:32:22.570Z,19.00
2018-12-19T15:34:56.014Z,19.10
2018-12-19T15:37:29.310Z,19.20
2018-12-19T15:40:02.089Z,19.20
2018-12-19T15:42:35.388Z,19.40
2018-12-19T15:45:17.123Z,19.40
2018-12-19T15:47:50.531Z,19.60
2018-12-19T15:50:23.587Z,19.70
2018-12-19T15:53:01.942Z,19.80
2018-12-19T15:55:52.226Z,19.90
2018-12-19T15:58:26.050Z,20.00
2018-12-19T16:00:58.815Z,20.00
2018-12-19T16:03:31.465Z,20.10
2018-12-19T16:06:06.880Z,20.10
2018-12-19T16:08:40.534Z,20.20
2018-12-19T16:11:14.053Z,20.30
2018-12-19T16:13:47.001Z,20.30
2018-12-19T16:16:20.926Z,20.30
2018-12-19T16:18:54.045Z,20.40
2018-12-19T16:21:27.087Z,20.40
2018-12-19T16:24:00.022Z,20.40
2018-12-19T16:26:37.578Z,20.50
2018-12-19T16:29:10.552Z,20.60
2018-12-19T16:31:43.394Z,20.60
2018-12-19T16:34:16.616Z,20.60
2018-12-19T16:36:49.966Z,20.70
2018-12-19T16:39:22.917Z,20.80
2018-12-19T16:41:55.951Z,20.80
2018-12-19T16:44:29.029Z,20.90
2018-12-19T16:47:06.780Z,21.00
2018-12-19T16:49:39.899Z,21.10
2018-12-19T16:52:12.636Z,21.10
2018-12-19T16:54:45.656Z,21.20
2018-12-19T16:57:38.276Z,21.30
2018-12-19T17:00:12.373Z,21.40
2018-12-19T17:02:45.108Z,21.60
2018-12-19T17:05:18.458Z,21.60
2018-12-19T17:07:51.470Z,21.60
2018-12-19T17:10:25.221Z,21.70
2018-12-19T17:12:58.069Z,21.70
2018-12-19T17:18:29.490Z,21.80
2018-12-19T17:21:02.399Z,21.80
2018-12-19T17:23:35.058Z,21.90
2018-12-19T17:26:11.707Z,21.90
2018-12-19T17:28:47.218Z,22.00
2018-12-19T17:31:20.213Z,22.10
2018-12-19T17:33:53.131Z,22.10
2018-12-19T17:36:32.830Z,22.10
2018-12-19T17:41:48.600Z,22.30
2018-12-19T17:44:21.670Z,22.40
2018-12-19T17:47:00.268Z,22.40
2018-12-19T17:49:33.254Z,22.40
2018-12-19T17:52:06.629Z,22.40
2018-12-19T17:54:43.574Z,22.40
2018-12-19T17:57:33.903Z,22.50
2018-12-19T18:00:13.952Z,22.60
2018-12-19T18:03:00.841Z,22.60
2018-12-19T18:05:34.058Z,22.70
2018-12-19T18:08:26.365Z,22.80
2018-12-19T18:11:04.411Z,22.90
2018-12-19T18:13:41.884Z,23.00
2018-12-19T18:16:24.682Z,23.00
2018-12-19T18:18:57.999Z,23.10
2018-12-19T18:21:39.209Z,23.20
2018-12-19T18:24:11.970Z,23.30
2018-12-19T18:26:46.296Z,23.40
2018-12-19T18:29:19.081Z,23.30
2018-12-19T18:31:51.715Z,23.20
2018-12-19T18:34:38.257Z,23.40
2018-12-19T18:40:15.928Z,23.50
2018-12-19T18:42:49.682Z,23.60
2018-12-19T18:45:24.490Z,23.70
2018-12-19T18:48:03.748Z,23.80
2018-12-19T18:50:36.292Z,23.90
2018-12-19T18:53:09.240Z,23.90
2018-12-19T18:55:57.506Z,24.00
2018-12-19T18:58:30.157Z,24.10
2018-12-19T19:01:02.664Z,24.10
2018-12-19T19:03:35.601Z,24.20
2018-12-19T19:06:12.005Z,24.20
2018-12-19T19:08:47.090Z,24.20
2018-12-19T19:14:06.946Z,24.20
2018-12-19T19:16:40.762Z,24.20
2018-12-19T19:19:13.950Z,24.20
2018-12-19T19:21:47.244Z,24.30
2018-12-19T19:24:23.944Z,24.20
2018-12-19T19:27:03.041Z,24.20
2018-12-19T19:29:35.490Z,24.10
2018-12-19T19:32:10.906Z,24.10
2018-12-19T19:34:47.942Z,24.30
2018-12-19T19:40:14.407Z,24.60
2018-12-19T19:53:03.355Z,24.80
2018-12-19T19:55:45.829Z,24.80
2018-12-19T19:58:18.950Z,24.70
2018-12-19T20:00:51.989Z,24.60
2018-12-19T20:03:24.485Z,24.50
2018-12-19T20:08:51.019Z,24.20
2018-12-19T20:11:24.003Z,24.20
2018-12-19T20:13:57.634Z,24.20
2018-12-19T20:16:34.843Z,24.20
2018-12-19T20:19:07.796Z,24.30
2018-12-19T20:21:44.966Z,24.20
2018-12-19T20:24:22.757Z,24.10
2018-12-19T20:26:55.693Z,24.00
2018-12-19T20:29:30.113Z,23.80
2018-12-19T20:32:05.691Z,23.70
2018-12-19T20:34:38.574Z,23.60
2018-12-19T20:37:16.749Z,23.50
2018-12-19T20:39:53.607Z,23.60
2018-12-19T20:42:26.523Z,23.60
2018-12-19T20:44:59.309Z,23.50
2018-12-19T20:47:32.064Z,23.40
2018-12-19T20:50:06.044Z,23.30
2018-12-19T20:52:39.370Z,23.30
2018-12-19T20:55:14.821Z,23.20
2018-12-19T20:57:50.138Z,23.10
2018-12-19T21:00:22.788Z,23.00
2018-12-19T21:02:55.681Z,22.90
2018-12-19T21:05:28.423Z,22.80
2018-12-19T21:08:01.218Z,22.80
2018-12-19T21:10:34.307Z,22.80
2018-12-19T21:13:07.609Z,22.80
2018-12-19T21:15:46.937Z,22.70
2018-12-19T21:18:23.895Z,22.70
2018-12-19T21:20:56.758Z,22.60
2018-12-19T21:23:29.632Z,22.50
2018-12-19T21:26:16.635Z,22.40
2018-12-19T21:28:49.785Z,22.40
2018-12-19T21:31:22.339Z,22.30
2018-12-19T21:33:54.873Z,22.20
2018-12-19T21:36:38.407Z,22.10
2018-12-19T21:39:12.998Z,22.00
2018-12-19T21:41:45.977Z,22.00
2018-12-19T21:44:18.820Z,21.90
2018-12-19T21:46:57.690Z,21.80
2018-12-19T21:49:34.868Z,21.60
2018-12-19T21:52:27.970Z,21.60
2018-12-19T21:55:05.179Z,21.50
2018-12-19T21:57:38.268Z,21.40
2018-12-19T22:00:15.820Z,21.30
2018-12-19T22:02:48.628Z,21.30
2018-12-19T22:05:29.985Z,21.20
2018-12-19T22:08:03.220Z,21.10
2018-12-19T22:10:38.009Z,21.10
2018-12-19T22:13:11.082Z,21.00
2018-12-19T22:15:48.865Z,20.90
2018-12-19T22:18:26.785Z,20.90
2018-12-19T22:20:59.328Z,20.80
2018-12-19T22:23:32.062Z,20.80
2018-12-19T22:26:15.953Z,20.70
2018-12-19T22:28:49.102Z,20.60
2018-12-19T22:31:22.336Z,20.60
2018-12-19T22:33:54.966Z,20.60
2018-12-19T22:36:29.252Z,20.50
2018-12-19T22:39:01.985Z,20.50
2018-12-19T22:41:34.811Z,20.50
2018-12-19T22:44:09.736Z,20.50
2018-12-19T22:46:47.824Z,20.40
2018-12-19T22:49:21.095Z,20.40
2018-12-19T22:51:57.875Z,20.30
2018-12-19T22:54:32.444Z,20.30
2018-12-19T22:57:10.872Z,20.30
2018-12-19T22:59:44.952Z,20.30
2018-12-19T23:03:25.021Z,20.20
2018-12-19T23:06:02.592Z,20.20
2018-12-19T23:08:35.376Z,20.30
2018-12-19T23:11:07.970Z,20.20
2018-12-19T23:13:40.397Z,20.20
2018-12-19T23:16:14.386Z,20.20
2018-12-19T23:18:48.310Z,20.20
2018-12-19T23:21:21.219Z,20.20
2018-12-19T23:23:54.414Z,20.20
2018-12-19T23:26:29.742Z,20.20
2018-12-19T23:29:05.956Z,20.10
2018-12-19T23:31:38.864Z,20.00
2018-12-19T23:34:11.406Z,20.00
2018-12-19T23:36:46.097Z,20.00
2018-12-19T23:39:18.970Z,20.00
2018-12-19T23:41:53.226Z,19.90
2018-12-19T23:44:30.302Z,19.90
2018-12-19T23:47:06.813Z,19.90
2018-12-19T23:49:42.806Z,19.80
2018-12-19T23:52:15.676Z,19.70
2018-12-19T23:54:48.833Z,19.60
2018-12-19T23:57:33.401Z,19.60
